createdAt,value
2018-04-19T00:01:25.546Z,7.03
2018-04-19T00:03:54.196Z,7.60
2018-04-19T00:06:25.193Z,7.70
2018-04-19T00:08:54.160Z,7.57
2018-04-19T00:11:23.183Z,7.83
2018-04-19T00:13:51.801Z,7.10
2018-04-19T00:16:20.520Z,7.63
2018-04-19T00:18:49.220Z,8.97
2018-04-19T00:21:17.786Z,7.97
2018-04-19T00:23:46.392Z,7.70
2018-04-19T00:26:14.981Z,8.07
2018-04-19T00:28:43.824Z,7.80
2018-04-19T00:31:12.550Z,8.07
2018-04-19T00:33:41.108Z,7.43
2018-04-19T00:36:09.807Z,7.90
2018-04-19T00:38:39.719Z,6.97
2018-04-19T00:41:08.325Z,8.23
2018-04-19T00:43:37.664Z,8.20
2018-04-19T00:46:06.249Z,8.57
2018-04-19T00:48:34.914Z,8.53
2018-04-19T00:51:03.511Z,7.70
2018-04-19T00:53:32.084Z,7.77
2018-04-19T00:56:00.692Z,7.27
2018-04-19T00:58:29.492Z,7.60
2018-04-19T01:00:58.773Z,7.73
2018-04-19T01:03:27.338Z,8.17
2018-04-19T01:05:56.059Z,7.57
2018-04-19T01:08:24.669Z,7.57
2018-04-19T01:10:53.475Z,8.00
2018-04-19T01:13:22.681Z,7.83
2018-04-19T01:15:51.448Z,7.13
2018-04-19T01:18:20.073Z,7.37
2018-04-19T01:20:48.791Z,6.93
2018-04-19T01:23:17.350Z,7.67
2018-04-19T01:25:46.635Z,7.43
2018-04-19T01:28:15.361Z,7.00
2018-04-19T01:30:43.886Z,8.20
2018-04-19T01:33:12.428Z,8.70
2018-04-19T01:35:53.041Z,8.17
2018-04-19T01:38:21.598Z,8.53
2018-04-19T01:40:50.204Z,7.97
2018-04-19T01:43:18.837Z,8.70
2018-04-19T01:45:47.429Z,8.80
2018-04-19T01:48:15.977Z,9.33
2018-04-19T01:50:44.609Z,9.00
2018-04-19T01:53:13.423Z,9.23
2018-04-19T01:55:42.245Z,8.77
2018-04-19T01:58:10.919Z,8.70
2018-04-19T02:00:39.688Z,8.77
2018-04-19T02:03:08.342Z,8.47
2018-04-19T02:05:37.131Z,9.17
2018-04-19T02:08:06.054Z,8.87
2018-04-19T02:10:34.656Z,9.13
2018-04-19T02:13:03.277Z,8.33
2018-04-19T02:15:31.853Z,9.30
2018-04-19T02:18:00.638Z,9.40
2018-04-19T02:20:29.269Z,7.83
2018-04-19T02:22:57.896Z,9.80
2018-04-19T02:25:26.508Z,9.07
2018-04-19T02:27:55.064Z,8.63
2018-04-19T02:30:23.752Z,8.87
2018-04-19T02:32:52.463Z,9.70
2018-04-19T02:35:21.793Z,8.83
2018-04-19T02:37:50.421Z,8.90
2018-04-19T02:40:19.134Z,9.13
2018-04-19T02:42:48.570Z,9.30
2018-04-19T02:45:17.184Z,8.60
2018-04-19T02:47:45.802Z,9.20
2018-04-19T02:50:14.413Z,9.53
2018-04-19T02:52:43.156Z,9.53
2018-04-19T02:55:11.867Z,8.73
2018-04-19T02:57:40.589Z,9.43
2018-04-19T03:00:09.407Z,8.93
2018-04-19T03:02:38.232Z,9.20
2018-04-19T03:05:07.051Z,9.20
2018-04-19T03:07:35.740Z,9.53
2018-04-19T03:10:04.674Z,9.30
2018-04-19T03:12:33.390Z,10.10
2018-04-19T03:15:02.241Z,8.80
2018-04-19T03:17:30.797Z,9.83
2018-04-19T03:19:59.582Z,9.63
2018-04-19T03:22:28.217Z,10.50
2018-04-19T03:24:57.742Z,10.00
2018-04-19T03:27:26.754Z,10.47
2018-04-19T03:29:55.389Z,9.93
2018-04-19T03:32:24.098Z,10.00
2018-04-19T03:34:53.121Z,10.40
2018-04-19T03:37:21.988Z,10.47
2018-04-19T03:39:51.578Z,9.77
2018-04-19T03:42:20.403Z,9.70
2018-04-19T03:44:49.211Z,8.23
2018-04-19T03:47:18.032Z,10.17
2018-04-19T03:49:46.673Z,10.33
2018-04-19T03:52:15.585Z,10.27
2018-04-19T03:54:44.294Z,10.63
2018-04-19T03:57:12.931Z,10.57
2018-04-19T03:59:41.749Z,10.07
2018-04-19T04:02:10.374Z,10.37
2018-04-19T04:04:39.094Z,9.87
2018-04-19T04:07:08.329Z,9.50
2018-04-19T04:09:37.233Z,10.33
2018-04-19T04:12:05.981Z,9.70
2018-04-19T04:14:34.782Z,10.93
2018-04-19T04:20:23.502Z,10.37
2018-04-19T04:23:03.875Z,9.73
2018-04-19T04:25:32.686Z,9.00
2018-04-19T04:28:01.420Z,9.60
2018-04-19T04:30:30.194Z,9.67
2018-04-19T04:32:58.857Z,8.60
2018-04-19T04:35:27.678Z,9.13
2018-04-19T04:37:56.385Z,8.60
2018-04-19T04:40:25.217Z,9.13
2018-04-19T04:42:53.941Z,9.73
2018-04-19T04:45:22.672Z,19.70
2018-04-19T04:47:51.513Z,8.83
2018-04-19T04:50:20.368Z,9.63
2018-04-19T04:52:49.228Z,8.87
2018-04-19T04:55:18.048Z,10.10
2018-04-19T04:57:46.775Z,9.70
2018-04-19T05:00:15.595Z,9.50
2018-04-19T05:02:44.416Z,10.77
2018-04-19T05:05:13.184Z,10.87
2018-04-19T05:07:42.060Z,10.53
2018-04-19T05:10:10.695Z,11.03
2018-04-19T05:12:40.052Z,11.67
2018-04-19T05:15:08.708Z,10.97
2018-04-19T05:17:38.529Z,9.87
2018-04-19T05:20:07.110Z,10.67
2018-04-19T05:22:35.897Z,10.23
2018-04-19T05:25:04.619Z,12.10
2018-04-19T05:27:33.345Z,11.33
2018-04-19T05:30:02.166Z,11.23
2018-04-19T05:32:31.050Z,11.83
2018-04-19T05:34:59.719Z,11.67
2018-04-19T05:37:28.344Z,11.53
2018-04-19T05:39:57.155Z,11.23
2018-04-19T05:42:26.888Z,20.20
2018-04-19T05:44:55.494Z,14.90
2018-04-19T05:47:24.119Z,13.83
2018-04-19T05:49:52.772Z,11.07
2018-04-19T05:52:21.370Z,11.60
2018-04-19T05:54:50.105Z,12.90
2018-04-19T05:57:18.812Z,11.37
2018-04-19T05:59:47.512Z,10.57
2018-04-19T06:02:16.451Z,12.50
2018-04-19T06:04:45.273Z,11.80
2018-04-19T06:07:13.909Z,11.80
2018-04-19T06:09:42.511Z,11.57
2018-04-19T06:12:11.338Z,11.83
2018-04-19T06:14:40.079Z,11.00
2018-04-19T06:17:08.690Z,10.40
2018-04-19T06:19:37.574Z,11.43
2018-04-19T06:22:06.344Z,10.97
2018-04-19T06:24:35.009Z,11.53
2018-04-19T06:27:03.631Z,11.20
2018-04-19T06:29:32.992Z,11.57
2018-04-19T06:32:01.597Z,11.50
2018-04-19T06:34:30.228Z,10.67
2018-04-19T06:36:59.060Z,11.37
2018-04-19T06:39:27.638Z,10.87
2018-04-19T06:41:56.305Z,11.73
2018-04-19T06:44:24.995Z,11.07
2018-04-19T06:46:53.762Z,10.27
2018-04-19T06:49:22.380Z,11.90
2018-04-19T06:51:51.490Z,12.20
2018-04-19T06:54:20.309Z,11.33
2018-04-19T06:56:49.035Z,10.17
2018-04-19T06:59:17.716Z,10.37
2018-04-19T07:01:47.234Z,10.30
2018-04-19T07:04:15.876Z,9.53
2018-04-19T07:06:44.584Z,9.73
2018-04-19T07:09:13.507Z,9.93
2018-04-19T07:11:42.330Z,9.70
2018-04-19T07:14:10.964Z,19.73
2018-04-19T07:16:39.627Z,12.37
2018-04-19T07:19:08.302Z,12.67
2018-04-19T07:21:36.877Z,10.87
2018-04-19T07:24:05.519Z,10.27
2018-04-19T07:26:34.563Z,10.33
2018-04-19T07:29:03.210Z,10.33
2018-04-19T07:31:31.836Z,8.67
2018-04-19T07:34:00.802Z,9.27
2018-04-19T07:36:30.555Z,9.30
2018-04-19T07:38:59.423Z,8.27
2018-04-19T07:41:28.194Z,9.83
2018-04-19T07:43:56.894Z,11.03
2018-04-19T07:46:25.654Z,10.63
2018-04-19T07:48:54.366Z,9.80
2018-04-19T07:51:22.974Z,9.73
2018-04-19T07:53:51.704Z,10.47
2018-04-19T07:56:20.444Z,11.47
2018-04-19T07:58:49.148Z,10.57
2018-04-19T08:01:17.870Z,10.13
2018-04-19T08:03:46.633Z,12.10
2018-04-19T08:06:15.313Z,12.67
2018-04-19T08:08:44.136Z,13.07
2018-04-19T08:11:12.934Z,12.97
2018-04-19T08:13:41.587Z,11.10
2018-04-19T08:16:10.267Z,11.87
2018-04-19T08:18:39.025Z,9.80
2018-04-19T08:21:07.832Z,10.27
2018-04-19T08:23:36.789Z,10.70
2018-04-19T08:26:05.591Z,9.20
2018-04-19T08:28:34.419Z,10.03
2018-04-19T08:31:03.038Z,10.33
2018-04-19T08:33:31.761Z,11.00
2018-04-19T08:36:01.087Z,10.70
2018-04-19T08:38:29.846Z,9.53
2018-04-19T08:40:59.233Z,10.10
2018-04-19T08:43:28.756Z,11.20
2018-04-19T08:45:57.349Z,10.47
2018-04-19T08:48:26.094Z,9.63
2018-04-19T08:50:54.818Z,11.23
2018-04-19T08:53:23.403Z,9.97
2018-04-19T08:55:52.097Z,9.83
2018-04-19T08:58:20.883Z,10.20
2018-04-19T09:00:49.704Z,8.87
2018-04-19T09:03:18.425Z,8.67
2018-04-19T09:05:48.156Z,9.10
2018-04-19T09:08:16.973Z,9.17
2018-04-19T09:10:45.698Z,7.87
2018-04-19T09:13:14.748Z,8.23
2018-04-19T09:15:43.541Z,7.47
2018-04-19T09:18:12.237Z,8.80
2018-04-19T09:20:41.384Z,9.47
2018-04-19T09:23:10.084Z,8.23
2018-04-19T09:25:39.106Z,7.07
2018-04-19T09:28:07.741Z,6.87
2018-04-19T09:30:36.401Z,8.00
2018-04-19T09:33:05.085Z,8.20
2018-04-19T09:35:33.949Z,8.27
2018-04-19T09:38:02.626Z,8.83
2018-04-19T09:40:31.295Z,8.47
2018-04-19T09:43:00.942Z,8.43
2018-04-19T09:45:30.456Z,8.43
2018-04-19T09:47:59.093Z,7.53
2018-04-19T09:50:28.141Z,9.20
2018-04-19T09:52:57.676Z,7.13
2018-04-19T09:55:27.505Z,7.63
2018-04-19T09:58:08.076Z,7.30
2018-04-19T10:00:42.225Z,8.07
2018-04-19T10:03:17.887Z,7.53
2018-04-19T10:05:47.583Z,7.93
2018-04-19T10:08:16.227Z,8.40
2018-04-19T10:10:44.867Z,7.07
2018-04-19T10:13:13.477Z,7.67
2018-04-19T10:15:42.833Z,6.70
2018-04-19T10:18:11.534Z,7.13
2018-04-19T10:20:40.271Z,6.63
2018-04-19T10:23:09.037Z,6.53
2018-04-19T10:25:37.696Z,7.47
2018-04-19T10:28:06.288Z,7.20
2018-04-19T10:30:34.935Z,9.47
2018-04-19T10:33:03.572Z,7.27
2018-04-19T10:35:32.290Z,7.87
2018-04-19T10:38:00.898Z,9.63
2018-04-19T10:40:29.688Z,7.50
2018-04-19T10:42:59.295Z,7.70
2018-04-19T10:45:28.041Z,7.93
2018-04-19T10:47:56.765Z,8.00
2018-04-19T10:50:26.091Z,9.07
2018-04-19T10:52:55.788Z,8.90
2018-04-19T10:55:25.502Z,8.77
2018-04-19T10:57:56.123Z,7.30
2018-04-19T11:00:24.689Z,8.07
2018-04-19T11:02:53.335Z,7.40
2018-04-19T11:05:22.001Z,9.20
2018-04-19T11:07:50.649Z,8.73
2018-04-19T11:10:19.338Z,8.50
2018-04-19T11:12:48.077Z,8.03
2018-04-19T11:15:16.722Z,7.20
2018-04-19T11:17:45.635Z,6.77
2018-04-19T11:20:14.267Z,6.63
2018-04-19T11:22:42.920Z,6.40
2018-04-19T11:25:12.165Z,6.53
2018-04-19T11:27:41.672Z,6.50
2018-04-19T11:30:11.225Z,7.83
2018-04-19T11:32:40.008Z,8.67
2018-04-19T11:35:08.649Z,7.90
2018-04-19T11:37:37.271Z,9.80
2018-04-19T11:40:05.959Z,9.63
2018-04-19T11:42:34.610Z,9.23
2018-04-19T11:45:03.247Z,9.43
2018-04-19T11:47:31.883Z,9.20
2018-04-19T11:50:00.456Z,11.23
2018-04-19T11:52:29.139Z,9.30
2018-04-19T11:54:57.769Z,10.17
2018-04-19T11:57:26.422Z,9.77
2018-04-19T11:59:55.290Z,9.80
2018-04-19T12:02:23.882Z,9.50
2018-04-19T12:04:52.603Z,8.63
2018-04-19T12:07:21.226Z,7.33
2018-04-19T12:09:49.869Z,8.17
2018-04-19T12:12:18.503Z,8.77
2018-04-19T12:14:47.246Z,7.47
2018-04-19T12:17:15.878Z,8.27
2018-04-19T12:19:44.572Z,8.97
2018-04-19T12:22:13.211Z,8.20
2018-04-19T12:24:41.857Z,8.67
2018-04-19T12:27:11.287Z,9.00
2018-04-19T12:29:39.941Z,8.83
2018-04-19T12:32:08.706Z,8.13
2018-04-19T12:34:37.418Z,9.50
2018-04-19T12:37:06.041Z,9.30
2018-04-19T12:39:35.692Z,8.03
2018-04-19T12:42:04.361Z,22.80
2018-04-19T12:44:33.007Z,8.27
2018-04-19T12:47:02.323Z,8.37
2018-04-19T12:49:30.956Z,9.27
2018-04-19T12:51:59.604Z,9.17
2018-04-19T12:54:28.398Z,9.70
2018-04-19T12:56:57.921Z,9.50
2018-04-19T12:59:26.500Z,8.70
2018-04-19T13:01:55.117Z,8.50
2018-04-19T13:04:24.556Z,8.60
2018-04-19T13:06:55.484Z,9.30
2018-04-19T13:09:25.849Z,10.03
2018-04-19T13:11:54.490Z,10.27
2018-04-19T13:14:23.061Z,10.10
2018-04-19T13:16:51.741Z,8.40
2018-04-19T13:19:21.197Z,8.50
2018-04-19T13:21:53.388Z,9.13
2018-04-19T13:24:22.788Z,9.40
2018-04-19T13:26:52.396Z,9.17
2018-04-19T13:29:23.493Z,8.73
2018-04-19T13:31:52.171Z,8.70
2018-04-19T13:34:20.772Z,8.87
2018-04-19T13:36:49.429Z,9.37
2018-04-19T13:39:18.208Z,9.20
2018-04-19T13:41:47.472Z,8.83
2018-04-19T13:44:16.112Z,9.33
2018-04-19T13:46:44.707Z,10.20
2018-04-19T13:49:13.361Z,9.73
2018-04-19T13:51:41.969Z,9.33
2018-04-19T13:54:10.641Z,10.20
2018-04-19T13:56:39.280Z,9.83
2018-04-19T13:59:07.907Z,9.37
2018-04-19T14:01:36.857Z,10.13
2018-04-19T14:04:05.455Z,9.97
2018-04-19T14:06:34.104Z,9.57
2018-04-19T14:09:02.887Z,10.23
2018-04-19T14:11:31.976Z,10.00
2018-04-19T14:14:00.860Z,9.93
2018-04-19T14:16:30.409Z,10.03
2018-04-19T14:18:59.860Z,8.60
2018-04-19T14:24:04.720Z,10.87
2018-04-19T14:26:33.366Z,9.57
2018-04-19T14:29:02.755Z,9.73
2018-04-19T14:31:31.786Z,11.23
2018-04-19T14:34:00.395Z,10.30
2018-04-19T14:36:29.036Z,9.17
2018-04-19T14:38:57.633Z,10.33
2018-04-19T14:41:26.315Z,10.47
2018-04-19T14:43:54.940Z,8.80
2018-04-19T14:46:23.539Z,9.77
2018-04-19T14:48:52.228Z,9.40
2018-04-19T14:51:20.857Z,9.17
2018-04-19T14:53:49.644Z,9.43
2018-04-19T14:56:18.243Z,8.73
2018-04-19T14:58:46.884Z,9.27
2018-04-19T15:01:50.142Z,10.07
2018-04-19T15:04:20.196Z,9.13
2018-04-19T15:06:48.768Z,10.57
2018-04-19T15:09:17.458Z,9.33
2018-04-19T15:11:46.124Z,9.37
2018-04-19T15:14:14.707Z,8.43
2018-04-19T15:16:43.273Z,8.97
2018-04-19T15:19:11.911Z,8.90
2018-04-19T15:21:40.489Z,9.57
2018-04-19T15:24:09.050Z,8.57
2018-04-19T15:26:37.719Z,8.63
2018-04-19T15:29:06.526Z,8.00
2018-04-19T15:31:35.130Z,7.97
2018-04-19T15:34:03.802Z,8.23
2018-04-19T15:36:32.409Z,9.07
2018-04-19T15:39:00.982Z,8.13
2018-04-19T15:41:30.888Z,8.40
2018-04-19T15:43:59.474Z,8.93
2018-04-19T15:46:28.075Z,7.97
2018-04-19T15:48:56.641Z,8.23
2018-04-19T15:51:25.311Z,9.13
2018-04-19T15:53:53.905Z,7.47
2018-04-19T15:56:22.497Z,8.87
2018-04-19T15:58:51.104Z,8.90
2018-04-19T16:01:19.628Z,7.10
2018-04-19T16:03:48.239Z,8.73
2018-04-19T16:06:16.805Z,8.07
2018-04-19T16:08:45.489Z,7.77
2018-04-19T16:11:14.138Z,8.33
2018-04-19T16:13:42.810Z,12.40
2018-04-19T16:16:11.427Z,8.50
2018-04-19T16:18:40.094Z,8.13
2018-04-19T16:21:08.667Z,8.40
2018-04-19T16:23:37.236Z,8.00
2018-04-19T16:26:05.793Z,8.30
2018-04-19T16:28:34.501Z,8.13
2018-04-19T16:31:03.117Z,9.40
2018-04-19T16:33:31.784Z,8.03
2018-04-19T16:36:00.356Z,8.13
2018-04-19T16:38:28.989Z,7.67
2018-04-19T16:40:57.799Z,7.93
2018-04-19T16:43:27.312Z,7.63
2018-04-19T16:45:56.545Z,8.43
2018-04-19T16:48:25.286Z,7.57
2018-04-19T16:50:53.906Z,7.80
2018-04-19T16:53:22.632Z,7.90
2018-04-19T16:55:52.045Z,9.13
2018-04-19T16:58:20.709Z,8.00
2018-04-19T17:00:49.361Z,7.70
2018-04-19T17:03:19.308Z,8.80
2018-04-19T17:05:48.412Z,8.87
2018-04-19T17:08:17.652Z,7.83
2018-04-19T17:11:14.098Z,7.90
2018-04-19T17:13:42.708Z,8.60
2018-04-19T17:16:11.397Z,8.10
2018-04-19T17:18:40.396Z,8.50
2018-04-19T17:21:09.110Z,7.70
2018-04-19T17:23:40.922Z,9.00
2018-04-19T17:26:11.198Z,7.97
2018-04-19T17:28:41.729Z,7.80
2018-04-19T17:31:10.902Z,7.60
2018-04-19T17:33:39.485Z,7.53
2018-04-19T17:36:09.746Z,6.83
2018-04-19T17:38:39.345Z,7.30
2018-04-19T17:41:08.324Z,6.80
2018-04-19T17:43:37.867Z,6.43
2018-04-19T17:46:06.857Z,6.73
2018-04-19T17:48:35.411Z,6.77
2018-04-19T17:51:04.050Z,16.57
2018-04-19T17:53:32.664Z,7.00
2018-04-19T17:56:01.956Z,7.60
2018-04-19T17:58:30.653Z,11.23
2018-04-19T18:00:59.258Z,10.10
2018-04-19T18:03:28.536Z,8.03
2018-04-19T18:05:57.147Z,10.70
2018-04-19T18:08:25.722Z,7.50
2018-04-19T18:10:54.392Z,6.33
2018-04-19T18:13:22.996Z,6.17
2018-04-19T18:15:51.609Z,6.83
2018-04-19T18:18:20.177Z,6.37
2018-04-19T18:20:49.274Z,6.70
2018-04-19T18:23:18.697Z,7.00
2018-04-19T18:25:47.325Z,7.33
2018-04-19T18:28:17.343Z,7.50
2018-04-19T18:30:45.977Z,7.00
2018-04-19T18:33:14.601Z,7.43
2018-04-19T18:35:43.198Z,5.87
2018-04-19T18:38:11.827Z,7.37
2018-04-19T18:40:40.799Z,7.17
2018-04-19T18:43:09.367Z,10.77
2018-04-19T18:45:38.156Z,6.80
2018-04-19T18:48:08.321Z,6.17
2018-04-19T18:50:38.636Z,6.57
2018-04-19T18:53:07.236Z,6.37
2018-04-19T18:55:37.225Z,7.70
2018-04-19T18:58:08.444Z,6.90
2018-04-19T19:00:37.725Z,7.77
2018-04-19T19:03:06.631Z,7.83
2018-04-19T19:05:35.236Z,8.60
2018-04-19T19:08:03.884Z,6.50
2018-04-19T19:10:32.544Z,6.60
2018-04-19T19:13:01.160Z,6.87
2018-04-19T19:18:56.608Z,5.80
2018-04-19T19:21:25.188Z,5.00
2018-04-19T19:23:53.852Z,5.70
2018-04-19T19:26:22.681Z,5.17
2018-04-19T19:28:52.221Z,5.27
2018-04-19T19:31:20.880Z,5.10
2018-04-19T19:33:50.213Z,5.70
2018-04-19T19:36:18.856Z,9.17
2018-04-19T19:38:47.857Z,5.47
2018-04-19T19:41:16.484Z,5.80
2018-04-19T19:43:46.322Z,6.17
2018-04-19T19:46:14.900Z,6.93
2018-04-19T19:48:45.893Z,7.53
2018-04-19T19:51:14.519Z,7.23
2018-04-19T19:53:43.104Z,10.50
2018-04-19T19:56:11.804Z,8.73
2018-04-19T19:58:40.425Z,7.57
2018-04-19T20:01:09.047Z,7.10
2018-04-19T20:03:38.633Z,7.20
2018-04-19T20:06:07.892Z,5.67
2018-04-19T20:08:36.843Z,6.70
2018-04-19T20:11:08.122Z,4.87
2018-04-19T20:13:37.529Z,4.50
2018-04-19T20:16:06.728Z,4.17
2018-04-19T20:18:35.412Z,4.70
2018-04-19T20:21:04.028Z,4.10
2018-04-19T20:23:32.629Z,3.73
2018-04-19T20:26:01.682Z,4.13
2018-04-19T20:31:33.374Z,10.03
2018-04-19T20:34:01.997Z,6.67
2018-04-19T20:36:32.081Z,4.20
2018-04-19T20:39:04.872Z,5.30
2018-04-19T20:41:34.404Z,4.80
2018-04-19T20:44:03.845Z,5.10
2018-04-19T20:46:32.868Z,4.63
2018-04-19T20:49:04.530Z,3.83
2018-04-19T20:51:33.232Z,3.97
2018-04-19T20:54:05.783Z,3.50
2018-04-19T20:56:36.209Z,4.00
2018-04-19T20:59:15.681Z,4.67
2018-04-19T21:01:44.461Z,4.10
2018-04-19T21:04:14.077Z,4.40
2018-04-19T21:06:43.355Z,4.63
2018-04-19T21:09:12.065Z,4.20
2018-04-19T21:11:40.701Z,5.50
2018-04-19T21:14:10.199Z,3.63
2018-04-19T21:16:39.705Z,4.17
2018-04-19T21:19:08.832Z,3.57
2018-04-19T21:21:37.498Z,3.80
2018-04-19T21:24:06.143Z,3.57
2018-04-19T21:26:35.285Z,2.87
2018-04-19T21:31:49.914Z,2.83
2018-04-19T21:34:18.716Z,3.63
2018-04-19T21:36:49.509Z,3.07
2018-04-19T21:39:19.121Z,2.67
2018-04-19T21:41:47.715Z,3.50
2018-04-19T21:44:16.355Z,3.43
2018-04-19T21:49:19.835Z,3.43
2018-04-19T21:54:33.132Z,3.37
2018-04-19T21:59:37.881Z,3.13
2018-04-19T22:02:10.818Z,3.20
2018-04-19T22:04:41.288Z,3.47
2018-04-19T22:07:09.978Z,3.00
2018-04-19T22:09:38.687Z,3.00
2018-04-19T22:12:07.280Z,3.47
2018-04-19T22:14:37.490Z,3.37
2018-04-19T22:17:08.262Z,3.07
2018-04-19T22:19:37.309Z,3.00
2018-04-19T22:22:27.288Z,3.03
2018-04-19T22:27:45.023Z,3.47
2018-04-19T22:30:13.780Z,8.03
2018-04-19T22:32:43.352Z,10.07
2018-04-19T22:35:13.239Z,3.33
2018-04-19T22:37:42.715Z,3.57
2018-04-19T22:40:12.794Z,2.83
2018-04-19T22:42:41.412Z,3.23
2018-04-19T22:45:13.274Z,2.70
2018-04-19T22:47:43.129Z,2.90
2018-04-19T22:50:11.784Z,3.50
2018-04-19T22:52:40.381Z,3.13
2018-04-19T22:55:10.296Z,3.40
2018-04-19T22:57:39.755Z,2.90
2018-04-19T23:00:08.419Z,3.37
2018-04-19T23:02:36.840Z,3.23
2018-04-19T23:05:05.506Z,3.20
2018-04-19T23:07:34.186Z,3.60
2018-04-19T23:12:48.905Z,2.60
2018-04-19T23:15:18.460Z,2.40
2018-04-19T23:17:47.084Z,3.40
2018-04-19T23:20:15.720Z,2.70
2018-04-19T23:22:44.378Z,2.73
2018-04-19T23:27:49.882Z,3.03
2018-04-19T23:32:52.273Z,3.47
2018-04-19T23:35:22.751Z,2.90
2018-04-19T23:37:53.024Z,3.10
2018-04-19T23:40:21.690Z,2.73
2018-04-19T23:42:50.429Z,2.50
2018-04-19T23:48:09.520Z,3.10
2018-04-19T23:50:39.662Z,3.40
2018-04-19T23:53:08.441Z,5.30
2018-04-19T23:55:37.037Z,2.90
2018-04-19T23:58:05.655Z,3.13
